EGKK/LGW METAR and TAF weather

Enter ICAO airport designator
Station Type Date Time Source
EGKK METAR 2021/03/01 10:20 UTC NOAA

EGKK 011020Z 08008KT 7000 FEW015 08/05 Q1031


Station Type Date Time Source
EGKK Decoded METAR 2021/03/01 10:20 UTC NOAA

London / Gatwick Airport, United Kingdom (EGKK) 51-09N 000-11W 0M
Mar 01, 2021 - 05:20 AM EST / 2021.03.01 1020 UTC
Wind: from the E (080 degrees) at 9 MPH (8 KT):0
Visibility: 4 mile(s):0
Sky conditions: mostly clear
Temperature: 46 F (8 C)
Dew Point: 41 F (5 C)
Relative Humidity: 81%
Pressure (altimeter): 30.45 in. Hg (1031 hPa)
ob: EGKK 011020Z 08008KT 7000 FEW015 08/05 Q1031
cycle: 10

Station Type Date Time Source
EGKK TAF 2021/03/01 06:09 UTC NOAA

TAF EGKK 010454Z 0106/0212 05008KT 3000 BR BKN006
BECMG 0108/0111 9999 NSW FEW015
BECMG 0119/0122 8000 BKN008
TEMPO 0121/0209 3000 BR BKN003 PROB30
TEMPO 0122/0209 1200 BKN001
BECMG 0209/0212 CAVOK

Example: see airport list